LiveATC.Net - Listen to live air traffic control over the Internet!


ICAO: RJOY  IATA:   Airport: Yao Airport
City: Yao
Country: Japan   Continent: Asia
RJOO METAR Weather: RJOO 231300Z AUTO 22004KT 160V280 9999 BKN003 OVC005 //////CB 24/24 Q1001
RJOY ADS-B Flight Tracking  (ADSBExchange)
RJOY Flight Activity (FlightAware)

RJOY Del/Gnd/Twr
Feed Status: UP   Listeners: 0
Listen in your browser - HTML5 player (in browser, HTML5)
Click here to listen with your own player (launches your MP3 player)
Archive Access: RJOY Del/Gnd/Twr
FacilityFrequency
Emergency/Guard121.500
Yao Ground121.800
Yao Tower124.350
Yao Tower126.200

NOTICE

Unauthorized use prohibited. See LiveATC.net Terms of Service


Airport/ARTCC Code
Frequency Search
(e.g., 124.400, 128.75)
Site-wide search
 


Browse Feeds
Top 50 Feeds
HF Oceanic Feeds
Coverage Map
Bad Weather Areas

LiveATC FAQ

Increase Coverage

Contact LiveATC.net
Press Inquiries

LiveATC on iPhone
LiveATC on Android

LiveATC Mobile
(Mobile browser)

ATC Audio Archives
Interesting Recordings

LiveATC Forums


Home Page
About LiveATC.net


Terms of Use
Privacy Policy

AIRMETs/SIGMETs

FAA Airport Status
NAS Status
Arrival Demand


Server Software By:
Icecast.org
Liquidsoap